Terminal Aerodrome Forecast
Issued by NWS

Home | Current Version | Previous Version | Text Only | Print | Product List | Glossary On
Versions: 1 2 3 4 5 6 7 8 9 10 11 12 13 14
000
FTUS46 KSGX 241856 AAA
TAFONT
TAF AMD
KONT 241856Z 2419/2524 25012G18KT P6SM SCT200
     FM250400 VRB04KT P6SM SCT200
     FM252100 25012G18KT P6SM SCT200=

USA.gov is the U.S. government's official web portal to all federal, state and local government web resources and services.